createdAt,value
2022-08-03T00:01:45.460Z,68.21
2022-08-03T00:04:13.332Z,68.21
2022-08-03T00:06:41.384Z,68.46
2022-08-03T00:09:11.054Z,68.60
2022-08-03T00:11:39.684Z,68.57
2022-08-03T00:14:08.182Z,68.77
2022-08-03T00:16:36.701Z,69.29
2022-08-03T00:19:04.957Z,69.29
2022-08-03T00:21:33.023Z,69.44
2022-08-03T00:24:00.895Z,69.98
2022-08-03T00:26:31.631Z,69.82
2022-08-03T00:28:59.444Z,69.65
2022-08-03T00:31:47.041Z,70.24
2022-08-03T00:34:15.261Z,70.29
2022-08-03T00:36:43.421Z,70.69
2022-08-03T00:39:11.253Z,71.23
2022-08-03T00:41:40.534Z,70.95
2022-08-03T00:44:08.351Z,70.85
2022-08-03T00:46:36.257Z,70.70
2022-08-03T00:49:04.151Z,70.56
2022-08-03T00:51:33.217Z,71.20
2022-08-03T00:54:01.557Z,71.49
2022-08-03T00:56:29.421Z,72.02
2022-08-03T00:58:59.664Z,72.07
2022-08-03T01:01:32.371Z,71.67
2022-08-03T01:04:01.098Z,71.57
2022-08-03T01:06:35.270Z,71.80
2022-08-03T01:09:13.443Z,72.62
2022-08-03T01:12:00.795Z,72.58
2022-08-03T01:14:39.442Z,72.23
2022-08-03T01:17:14.364Z,71.95
2022-08-03T01:19:47.864Z,72.23
2022-08-03T01:22:45.449Z,71.82
2022-08-03T01:25:25.056Z,72.44
2022-08-03T01:28:02.805Z,72.80
2022-08-03T01:30:34.757Z,73.49
2022-08-03T01:33:05.822Z,72.98
2022-08-03T01:35:38.770Z,74.42
2022-08-03T01:38:12.918Z,73.90
2022-08-03T01:40:42.397Z,74.12
2022-08-03T01:43:13.772Z,74.39
2022-08-03T01:45:44.910Z,73.96
2022-08-03T01:48:17.136Z,73.72
2022-08-03T01:50:47.874Z,73.64
2022-08-03T01:53:18.290Z,73.98
2022-08-03T01:55:48.504Z,73.87
2022-08-03T01:58:19.776Z,73.51
2022-08-03T02:00:51.142Z,73.57
2022-08-03T02:03:21.450Z,73.28
2022-08-03T02:06:01.245Z,73.99
2022-08-03T02:08:38.797Z,73.84
2022-08-03T02:11:07.629Z,73.49
2022-08-03T02:13:36.244Z,73.89
2022-08-03T02:16:06.436Z,73.45
2022-08-03T02:18:35.261Z,73.17
2022-08-03T02:21:10.591Z,73.22
2022-08-03T02:23:39.837Z,73.02
2022-08-03T02:26:13.121Z,73.45
2022-08-03T02:28:44.181Z,73.25
2022-08-03T02:31:17.751Z,73.42
2022-08-03T02:33:50.333Z,73.56
2022-08-03T02:36:22.970Z,73.78
2022-08-03T02:38:54.871Z,74.55
2022-08-03T02:41:28.165Z,74.47
2022-08-03T02:44:06.011Z,74.64
2022-08-03T02:46:39.649Z,75.14
2022-08-03T02:49:40.443Z,75.25
2022-08-03T02:51:58.860Z,75.46
2022-08-03T02:54:28.615Z,75.84
2022-08-03T02:56:59.523Z,75.86
2022-08-03T02:59:31.126Z,76.19
2022-08-03T03:02:03.308Z,76.10
2022-08-03T03:04:33.281Z,76.15
2022-08-03T03:07:03.699Z,76.25
2022-08-03T03:09:40.483Z,76.33
2022-08-03T03:12:11.817Z,76.37
2022-08-03T03:14:40.852Z,76.59
2022-08-03T03:17:12.215Z,77.47
2022-08-03T03:19:41.688Z,78.18
2022-08-03T03:22:10.629Z,77.78
2022-08-03T03:24:39.444Z,78.09
2022-08-03T03:27:07.711Z,78.73
2022-08-03T03:29:39.236Z,78.75
2022-08-03T03:32:09.117Z,79.16
2022-08-03T03:34:38.815Z,79.08
2022-08-03T03:37:06.994Z,79.35
2022-08-03T03:39:36.364Z,79.34
2022-08-03T03:42:04.538Z,79.12
2022-08-03T03:44:32.783Z,79.15
2022-08-03T03:47:00.709Z,78.98
2022-08-03T03:49:28.968Z,78.89
2022-08-03T03:51:58.287Z,79.14
2022-08-03T03:54:29.298Z,79.10
2022-08-03T03:56:57.362Z,79.23
2022-08-03T03:59:25.256Z,78.89
2022-08-03T04:01:58.850Z,78.84
2022-08-03T04:04:53.088Z,79.30
2022-08-03T04:07:42.942Z,79.17
2022-08-03T04:10:32.486Z,79.23
2022-08-03T04:13:01.496Z,79.13
2022-08-03T04:15:30.386Z,78.86
2022-08-03T04:18:00.112Z,78.35
2022-08-03T04:20:31.574Z,78.11
2022-08-03T04:23:02.855Z,78.05
2022-08-03T04:25:42.740Z,77.93
2022-08-03T04:28:30.502Z,77.54
2022-08-03T04:31:00.968Z,76.91
2022-08-03T04:33:32.618Z,76.50
2022-08-03T04:36:03.672Z,76.38
2022-08-03T04:38:37.773Z,76.51
2022-08-03T04:41:06.596Z,75.83
2022-08-03T04:43:35.640Z,75.63
2022-08-03T04:46:04.458Z,75.30
2022-08-03T04:48:32.489Z,74.69
2022-08-03T04:51:04.297Z,74.57
2022-08-03T04:53:33.526Z,74.10
2022-08-03T04:56:06.433Z,73.81
2022-08-03T04:58:34.453Z,73.62
2022-08-03T05:01:02.801Z,73.00
2022-08-03T05:03:31.644Z,72.46
2022-08-03T05:06:09.726Z,71.81
2022-08-03T05:08:45.241Z,71.45
2022-08-03T05:11:15.699Z,71.54
2022-08-03T05:13:43.572Z,70.73
2022-08-03T05:16:11.818Z,70.71
2022-08-03T05:18:39.663Z,69.50
2022-08-03T05:21:07.481Z,70.01
2022-08-03T05:23:35.512Z,69.70
2022-08-03T05:26:05.126Z,68.98
2022-08-03T05:28:32.949Z,68.21
2022-08-03T05:31:00.800Z,68.06
2022-08-03T05:33:28.641Z,66.97
2022-08-03T05:36:03.525Z,66.91
2022-08-03T05:38:34.388Z,66.15
2022-08-03T05:41:22.327Z,65.93
2022-08-03T05:43:52.341Z,63.80
2022-08-03T05:46:20.592Z,62.79
2022-08-03T05:48:48.459Z,61.83
2022-08-03T05:51:16.601Z,61.84
2022-08-03T05:53:44.995Z,60.15
2022-08-03T05:56:16.307Z,60.46
2022-08-03T05:58:46.163Z,60.33
2022-08-03T06:01:14.254Z,57.69
2022-08-03T06:03:42.173Z,58.00
2022-08-03T06:06:10.017Z,56.12
2022-08-03T06:08:38.337Z,56.48
2022-08-03T06:11:06.176Z,55.54
2022-08-03T06:13:36.010Z,54.46
2022-08-03T06:16:04.630Z,54.75
2022-08-03T06:18:32.520Z,53.64
2022-08-03T06:21:14.391Z,53.86
2022-08-03T06:26:28.075Z,52.40
2022-08-03T06:28:57.667Z,51.66
2022-08-03T06:31:32.757Z,51.10
2022-08-03T06:34:33.267Z,50.07
2022-08-03T06:36:52.396Z,49.25
2022-08-03T06:39:20.865Z,49.48
2022-08-03T06:41:52.480Z,47.24
2022-08-03T06:44:21.856Z,46.17
2022-08-03T06:46:49.736Z,45.13
2022-08-03T06:49:17.760Z,44.08
2022-08-03T06:52:05.037Z,43.45
2022-08-03T06:54:33.550Z,41.96
2022-08-03T06:57:01.672Z,41.26
2022-08-03T07:00:07.177Z,40.44
2022-08-03T07:02:20.630Z,39.34
2022-08-03T07:04:48.862Z,39.12
2022-08-03T07:07:17.390Z,39.42
2022-08-03T07:09:57.034Z,40.67
2022-08-03T07:12:27.782Z,40.39
2022-08-03T07:15:01.196Z,41.84
2022-08-03T07:17:30.891Z,38.96
2022-08-03T07:19:59.558Z,39.28
2022-08-03T07:22:27.608Z,38.56
2022-08-03T07:24:55.515Z,38.68
2022-08-03T07:27:23.548Z,39.07
2022-08-03T07:29:51.429Z,37.43
2022-08-03T07:32:20.651Z,37.52
2022-08-03T07:34:48.465Z,36.85
2022-08-03T07:37:16.514Z,36.83
2022-08-03T07:39:44.647Z,37.98
2022-08-03T07:42:12.621Z,36.44
2022-08-03T07:44:40.453Z,36.93
2022-08-03T07:47:08.260Z,36.86
2022-08-03T07:49:42.367Z,35.86
2022-08-03T07:52:28.567Z,36.09
2022-08-03T07:54:56.590Z,36.20
2022-08-03T07:57:24.442Z,36.19
2022-08-03T08:00:01.760Z,34.94
2022-08-03T08:02:39.955Z,34.52
2022-08-03T08:05:10.759Z,33.52
2022-08-03T08:07:38.810Z,32.64
2022-08-03T08:10:08.153Z,32.37
2022-08-03T08:12:35.917Z,31.17
2022-08-03T08:15:03.945Z,32.80
2022-08-03T08:17:31.848Z,32.50
2022-08-03T08:19:59.597Z,32.23
2022-08-03T08:22:30.636Z,30.06
2022-08-03T08:25:01.322Z,29.76
2022-08-03T08:28:29.875Z,30.60
2022-08-03T08:30:20.908Z,30.15
2022-08-03T08:32:49.892Z,29.38
2022-08-03T08:35:18.793Z,29.59
2022-08-03T08:37:50.940Z,28.80
2022-08-03T08:40:21.616Z,27.51
2022-08-03T08:42:58.559Z,28.51
2022-08-03T08:45:27.361Z,27.31
2022-08-03T08:48:00.338Z,26.10
2022-08-03T08:50:31.137Z,27.07
2022-08-03T08:53:03.660Z,25.59
2022-08-03T08:55:58.287Z,25.33
2022-08-03T08:58:23.307Z,23.52
2022-08-03T09:00:52.192Z,24.95
2022-08-03T09:03:22.734Z,24.33
2022-08-03T09:05:57.901Z,24.12
2022-08-03T09:08:27.266Z,23.45
2022-08-03T09:10:55.421Z,22.01
2022-08-03T09:13:23.622Z,22.40
2022-08-03T09:16:11.666Z,22.69
2022-08-03T09:18:39.665Z,22.48
2022-08-03T09:21:37.803Z,22.29
2022-08-03T09:24:16.501Z,21.08
2022-08-03T09:26:54.113Z,20.68
2022-08-03T09:29:22.816Z,20.81
2022-08-03T09:31:50.621Z,21.43
2022-08-03T09:34:19.543Z,22.37
2022-08-03T09:36:48.971Z,22.77
2022-08-03T09:39:19.716Z,24.22
2022-08-03T09:42:09.187Z,22.90
2022-08-03T09:44:37.992Z,23.46
2022-08-03T09:47:06.909Z,21.89
2022-08-03T09:49:34.904Z,21.60
2022-08-03T09:52:32.613Z,20.83
2022-08-03T09:55:02.877Z,21.80
2022-08-03T09:57:31.853Z,21.61
2022-08-03T10:00:12.352Z,24.63
2022-08-03T10:02:40.647Z,22.16
2022-08-03T10:05:11.513Z,23.61
2022-08-03T10:07:49.654Z,22.18
2022-08-03T10:10:30.128Z,20.97
2022-08-03T10:13:01.093Z,21.99
2022-08-03T10:16:23.070Z,20.53
2022-08-03T10:18:17.272Z,20.91
2022-08-03T10:20:50.677Z,21.53
2022-08-03T10:23:20.105Z,20.01
2022-08-03T10:25:55.736Z,20.48
2022-08-03T10:28:24.104Z,19.73
2022-08-03T10:30:54.698Z,20.33
2022-08-03T10:33:49.602Z,21.40
2022-08-03T10:36:15.186Z,20.69
2022-08-03T10:38:52.332Z,21.21
2022-08-03T10:41:22.959Z,21.78
2022-08-03T10:43:54.011Z,21.47
2022-08-03T10:46:22.809Z,22.00
2022-08-03T10:48:52.761Z,20.05
2022-08-03T10:51:21.693Z,20.65
2022-08-03T10:53:54.590Z,21.43
2022-08-03T10:57:14.533Z,20.82
2022-08-03T11:00:00.373Z,20.26
2022-08-03T11:03:02.890Z,20.91
2022-08-03T11:05:32.065Z,21.40
2022-08-03T11:08:19.008Z,20.79
2022-08-03T11:10:47.376Z,19.69
2022-08-03T11:13:19.188Z,21.32
2022-08-03T11:15:50.325Z,22.58
2022-08-03T11:18:18.917Z,21.06
2022-08-03T11:20:48.900Z,20.52
2022-08-03T11:23:18.298Z,21.10
2022-08-03T11:26:13.541Z,21.23
2022-08-03T11:28:44.625Z,20.30
2022-08-03T11:31:50.413Z,20.47
2022-08-03T11:34:19.367Z,21.03
2022-08-03T11:37:28.750Z,20.97
2022-08-03T11:39:59.337Z,20.48
2022-08-03T11:42:45.574Z,20.29
2022-08-03T11:45:15.464Z,20.05
2022-08-03T11:47:50.218Z,19.60
2022-08-03T11:50:21.147Z,20.31
2022-08-03T11:52:50.241Z,20.69
2022-08-03T11:55:21.601Z,19.95
2022-08-03T11:59:01.705Z,19.42
2022-08-03T12:00:38.843Z,20.24
2022-08-03T12:03:09.514Z,18.96
2022-08-03T12:05:52.289Z,18.87
2022-08-03T12:08:32.717Z,18.64
2022-08-03T12:11:03.108Z,19.64
2022-08-03T12:14:44.423Z,19.32
2022-08-03T12:16:28.703Z,19.39
2022-08-03T12:18:58.346Z,19.29
2022-08-03T12:21:26.722Z,19.41
2022-08-03T12:23:58.982Z,19.48
2022-08-03T12:26:27.319Z,20.00
2022-08-03T12:28:55.497Z,19.57
2022-08-03T12:31:23.584Z,18.62
2022-08-03T12:34:02.022Z,19.88
2022-08-03T12:36:30.984Z,19.43
2022-08-03T12:39:00.098Z,19.48
2022-08-03T12:41:34.182Z,18.98
2022-08-03T12:44:03.576Z,18.97
2022-08-03T12:46:34.293Z,19.05
2022-08-03T12:49:06.799Z,18.94
2022-08-03T12:51:36.829Z,18.15
2022-08-03T12:54:06.486Z,18.35
2022-08-03T12:56:34.612Z,18.08
2022-08-03T12:59:02.564Z,16.73
2022-08-03T13:01:38.243Z,16.90
2022-08-03T13:04:33.305Z,17.62
2022-08-03T13:07:03.531Z,19.06
2022-08-03T13:09:33.111Z,19.10
2022-08-03T13:12:08.749Z,20.14
2022-08-03T13:14:36.737Z,20.67
2022-08-03T13:17:06.258Z,20.85
2022-08-03T13:19:36.317Z,20.91
2022-08-03T13:22:12.405Z,21.62
2022-08-03T13:24:40.596Z,21.00
2022-08-03T13:28:04.928Z,20.56
2022-08-03T13:29:57.508Z,20.64
2022-08-03T13:32:25.505Z,20.96
2022-08-03T13:34:54.733Z,19.84
2022-08-03T13:37:23.095Z,19.81
2022-08-03T13:39:59.589Z,19.02
2022-08-03T13:42:31.396Z,20.24
2022-08-03T13:45:00.017Z,20.15
2022-08-03T13:47:28.321Z,20.28
2022-08-03T13:50:01.807Z,19.16
2022-08-03T13:52:31.971Z,19.66
2022-08-03T13:55:00.668Z,19.40
2022-08-03T13:58:04.187Z,19.24
2022-08-03T14:00:27.344Z,18.81
2022-08-03T14:03:16.070Z,19.18
2022-08-03T14:05:45.500Z,19.00
2022-08-03T14:08:13.706Z,18.61
2022-08-03T14:10:43.949Z,19.23
2022-08-03T14:13:12.890Z,18.45
2022-08-03T14:15:50.047Z,19.99
2022-08-03T14:18:29.136Z,18.66
2022-08-03T14:21:06.594Z,19.23
2022-08-03T14:23:35.814Z,19.79
2022-08-03T14:26:03.965Z,21.24
2022-08-03T14:28:32.119Z,20.93
2022-08-03T14:31:00.400Z,21.17
2022-08-03T14:33:29.329Z,21.38
2022-08-03T14:35:57.792Z,21.75
2022-08-03T14:38:27.001Z,22.21
2022-08-03T14:40:54.881Z,22.71
2022-08-03T14:43:22.797Z,22.30
2022-08-03T14:45:52.425Z,22.68
2022-08-03T14:50:29.294Z,23.47
2022-08-03T14:51:08.426Z,23.13
2022-08-03T14:53:37.597Z,23.36
2022-08-03T14:56:10.096Z,23.82
2022-08-03T14:58:39.240Z,23.55
2022-08-03T15:02:05.604Z,23.62
2022-08-03T15:03:55.604Z,23.59
2022-08-03T15:06:23.504Z,24.41
2022-08-03T15:09:13.861Z,23.94
2022-08-03T15:11:41.072Z,24.06
2022-08-03T15:14:09.683Z,24.28
2022-08-03T15:16:38.077Z,23.97
2022-08-03T15:20:03.917Z,23.80
2022-08-03T15:21:53.756Z,23.88
2022-08-03T15:24:22.977Z,24.63
2022-08-03T15:26:52.233Z,24.77
2022-08-03T15:30:04.715Z,24.80
2022-08-03T15:32:09.560Z,25.12
2022-08-03T15:34:37.723Z,24.33
2022-08-03T15:37:15.098Z,24.76
2022-08-03T15:39:59.518Z,24.62
2022-08-03T15:42:29.484Z,24.99
2022-08-03T15:44:58.102Z,25.18
2022-08-03T15:47:25.944Z,24.67
2022-08-03T15:49:53.810Z,24.89
2022-08-03T15:52:21.695Z,25.61
2022-08-03T15:54:50.834Z,24.62
2022-08-03T15:57:19.062Z,24.51
2022-08-03T15:59:47.159Z,24.83
2022-08-03T16:02:15.237Z,24.65
2022-08-03T16:04:43.053Z,25.07
2022-08-03T16:07:12.803Z,24.66
2022-08-03T16:09:43.304Z,25.31
2022-08-03T16:12:16.426Z,24.82
2022-08-03T16:14:54.011Z,25.57
2022-08-03T16:17:24.240Z,25.73
2022-08-03T16:19:54.947Z,26.08
2022-08-03T16:22:24.055Z,25.34
2022-08-03T16:24:52.271Z,26.17
2022-08-03T16:27:37.133Z,25.88
2022-08-03T16:30:12.232Z,25.33
2022-08-03T16:32:40.154Z,25.61
2022-08-03T16:35:08.600Z,25.68
2022-08-03T16:37:38.632Z,26.60
2022-08-03T16:40:17.322Z,26.41
2022-08-03T16:42:48.416Z,26.78
2022-08-03T16:45:16.173Z,26.92
2022-08-03T16:47:44.038Z,26.85
2022-08-03T16:50:19.013Z,27.77
2022-08-03T16:52:48.497Z,27.63
2022-08-03T16:55:42.881Z,27.00
2022-08-03T16:58:07.490Z,27.35
2022-08-03T17:00:41.966Z,27.63
2022-08-03T17:03:12.825Z,26.98
2022-08-03T17:05:49.711Z,27.10
2022-08-03T17:08:26.782Z,27.03
2022-08-03T17:10:56.465Z,27.13
2022-08-03T17:13:27.613Z,27.62
2022-08-03T17:16:10.336Z,27.34
2022-08-03T17:18:42.204Z,27.45
2022-08-03T17:21:17.142Z,27.54
2022-08-03T17:23:50.833Z,28.23
2022-08-03T17:26:22.362Z,28.52
2022-08-03T17:28:57.395Z,28.49
2022-08-03T17:31:31.279Z,28.63
2022-08-03T17:34:01.395Z,29.33
2022-08-03T17:36:54.006Z,28.58
2022-08-03T17:39:27.041Z,29.33
2022-08-03T17:42:39.130Z,29.13
2022-08-03T17:44:58.294Z,29.24
2022-08-03T17:47:41.233Z,29.50
2022-08-03T17:50:24.983Z,29.05
2022-08-03T17:53:07.106Z,29.30
2022-08-03T17:55:56.993Z,29.30
2022-08-03T17:58:41.407Z,29.14
2022-08-03T18:02:00.145Z,30.02
2022-08-03T18:04:29.876Z,29.83
2022-08-03T18:07:11.303Z,30.05
2022-08-03T18:10:03.508Z,30.13
2022-08-03T18:12:41.536Z,30.00
2022-08-03T18:15:21.000Z,30.16
2022-08-03T18:17:55.804Z,30.85
2022-08-03T18:20:40.418Z,30.45
2022-08-03T18:23:24.729Z,30.48
2022-08-03T18:26:01.513Z,30.58
2022-08-03T18:28:30.268Z,30.60
2022-08-03T18:30:59.153Z,31.07
2022-08-03T18:34:17.262Z,31.33
2022-08-03T18:36:22.179Z,31.56
2022-08-03T18:38:59.838Z,31.88
2022-08-03T18:41:32.506Z,32.13
2022-08-03T18:44:08.394Z,31.93
2022-08-03T18:47:07.420Z,32.31
2022-08-03T18:49:53.791Z,33.19
2022-08-03T18:52:28.864Z,33.20
2022-08-03T18:55:11.150Z,33.39
2022-08-03T18:57:53.366Z,33.39
2022-08-03T19:00:24.943Z,33.52
2022-08-03T19:03:12.450Z,33.99
2022-08-03T19:06:03.058Z,33.74
2022-08-03T19:08:45.207Z,34.18
2022-08-03T19:11:27.871Z,34.69
2022-08-03T19:13:59.173Z,35.56
2022-08-03T19:16:32.632Z,35.57
2022-08-03T19:19:02.413Z,35.38
2022-08-03T19:21:34.953Z,35.52
2022-08-03T19:24:09.314Z,36.24
2022-08-03T19:26:39.411Z,36.41
2022-08-03T19:29:11.369Z,36.88
2022-08-03T19:31:58.905Z,37.66
2022-08-03T19:34:29.217Z,36.51
2022-08-03T19:36:59.230Z,36.50
2022-08-03T19:39:27.676Z,36.69
2022-08-03T19:42:13.498Z,37.70
2022-08-03T19:44:55.536Z,37.67
2022-08-03T19:47:29.648Z,38.06
2022-08-03T19:50:06.046Z,38.09
2022-08-03T19:52:42.268Z,37.99
2022-08-03T19:55:12.419Z,38.15
2022-08-03T19:57:43.385Z,38.79
2022-08-03T20:00:13.818Z,38.88
2022-08-03T20:02:43.026Z,39.01
2022-08-03T20:05:15.510Z,38.79
2022-08-03T20:07:48.521Z,39.88
2022-08-03T20:10:17.944Z,40.05
2022-08-03T20:12:46.751Z,40.29
2022-08-03T20:15:22.171Z,40.17
2022-08-03T20:17:54.701Z,40.54
2022-08-03T20:20:40.052Z,41.06
2022-08-03T20:23:16.620Z,40.94
2022-08-03T20:25:58.611Z,41.27
2022-08-03T20:28:32.139Z,41.07
2022-08-03T20:31:00.169Z,41.59
2022-08-03T20:33:48.792Z,41.52
2022-08-03T20:36:17.762Z,40.92
2022-08-03T20:38:48.190Z,40.55
2022-08-03T20:41:17.094Z,41.53
2022-08-03T20:43:45.159Z,41.89
2022-08-03T20:46:30.929Z,42.92
2022-08-03T20:49:04.667Z,43.59
2022-08-03T20:51:50.051Z,43.51
2022-08-03T20:54:29.389Z,43.08
2022-08-03T20:56:58.512Z,43.75
2022-08-03T20:59:34.838Z,44.07
2022-08-03T21:02:19.211Z,43.89
2022-08-03T21:04:48.099Z,44.99
2022-08-03T21:07:19.782Z,45.64
2022-08-03T21:09:57.122Z,44.95
2022-08-03T21:12:37.189Z,44.55
2022-08-03T21:15:10.160Z,45.73
2022-08-03T21:18:00.579Z,45.96
2022-08-03T21:20:33.228Z,46.61
2022-08-03T21:23:01.817Z,46.65
2022-08-03T21:25:32.930Z,46.36
2022-08-03T21:28:02.105Z,46.50
2022-08-03T21:30:31.383Z,47.08
2022-08-03T21:32:59.794Z,46.64
2022-08-03T21:35:28.235Z,47.52
2022-08-03T21:38:10.032Z,47.80
2022-08-03T21:40:40.350Z,48.07
2022-08-03T21:43:08.762Z,48.12
2022-08-03T21:45:47.981Z,48.68
2022-08-03T21:48:17.567Z,48.15
2022-08-03T21:50:46.639Z,48.14
2022-08-03T21:53:16.218Z,48.98
2022-08-03T21:55:52.026Z,48.85
2022-08-03T21:58:29.500Z,48.93
2022-08-03T22:00:59.152Z,49.00
2022-08-03T22:03:27.826Z,49.79
2022-08-03T22:06:04.678Z,49.82
2022-08-03T22:08:35.093Z,49.98
2022-08-03T22:11:04.658Z,50.25
2022-08-03T22:13:43.878Z,50.56
2022-08-03T22:16:14.431Z,51.24
2022-08-03T22:18:48.326Z,51.50
2022-08-03T22:21:27.800Z,51.48
2022-08-03T22:24:05.967Z,51.23
2022-08-03T22:26:37.076Z,51.01
2022-08-03T22:29:08.660Z,51.39
2022-08-03T22:31:58.554Z,51.96
2022-08-03T22:34:27.345Z,52.45
2022-08-03T22:37:01.768Z,52.36
2022-08-03T22:39:30.477Z,52.37
2022-08-03T22:42:00.392Z,52.79
2022-08-03T22:44:29.232Z,52.71
2022-08-03T22:46:57.173Z,53.02
2022-08-03T22:49:25.229Z,53.26
2022-08-03T22:51:54.503Z,53.94
2022-08-03T22:54:23.410Z,54.03
2022-08-03T22:56:51.929Z,54.41
2022-08-03T22:59:38.997Z,54.64
2022-08-03T23:02:16.021Z,55.11
2022-08-03T23:04:51.991Z,54.85
2022-08-03T23:07:29.202Z,55.46
2022-08-03T23:09:58.305Z,56.00
2022-08-03T23:12:26.897Z,55.84
2022-08-03T23:14:58.632Z,56.22
2022-08-03T23:17:28.117Z,56.99
2022-08-03T23:20:01.155Z,57.00
2022-08-03T23:22:30.850Z,57.53
2022-08-03T23:25:01.360Z,58.69
2022-08-03T23:27:29.626Z,58.18
2022-08-03T23:29:59.976Z,57.84
2022-08-03T23:32:30.334Z,58.01
2022-08-03T23:35:18.032Z,57.99
2022-08-03T23:38:07.271Z,59.03
2022-08-03T23:40:34.971Z,59.13
2022-08-03T23:43:03.789Z,58.44
2022-08-03T23:45:37.199Z,58.78
2022-08-03T23:48:05.588Z,59.14
2022-08-03T23:50:41.423Z,59.12
2022-08-03T23:53:18.043Z,59.67
2022-08-03T23:55:56.934Z,60.28
2022-08-03T23:58:38.423Z,60.13
